Time;durP1;ratioP1;P1;durP2;ratioP2;P2;SDS_P1;SDS_P2;PMS_P1;PMS_P2;Temp;Humidity;BMP_temperature;BMP_pressure;BME280_temperature;BME280_humidity;BME280_pressure;Samples;Min_cycle;Max_cycle;Signal;HPM_P1;HPM_P2
2022/08/27 00:00:08;;;;;;;6.90;4.53;;;20.00;99.90;;;;;;5013393;28;20972;-58
2022/08/27 00:02:36;;;;;;;11.30;5.30;;;20.00;99.90;;;;;;5013561;28;20875;-59
2022/08/27 00:05:05;;;;;;;10.67;4.87;;;19.90;99.90;;;;;;5013607;28;20533;-59
2022/08/27 00:07:32;;;;;;;10.00;5.13;;;19.90;99.90;;;;;;5013666;28;20820;-58
2022/08/27 00:10:00;;;;;;;8.37;5.10;;;19.90;99.90;;;;;;5013228;28;20984;-58
2022/08/27 00:12:27;;;;;;;8.13;4.83;;;19.90;99.90;;;;;;5013342;28;20833;-59
2022/08/27 00:14:54;;;;;;;15.83;6.30;;;19.90;99.90;;;;;;5013437;28;20501;-59
2022/08/27 00:17:21;;;;;;;9.50;4.90;;;19.80;99.90;;;;;;5013629;28;20481;-57
2022/08/27 00:19:48;;;;;;;11.97;4.93;;;19.80;99.90;;;;;;5013274;28;20933;-58
2022/08/27 00:22:17;;;;;;;8.90;4.47;;;19.80;99.90;;;;;;5019470;28;20493;-58
2022/08/27 00:24:44;;;;;;;13.77;5.47;;;19.80;99.90;;;;;;5030320;28;20445;-58
2022/08/27 00:27:12;;;;;;;10.53;5.37;;;19.80;99.90;;;;;;5019254;28;20484;-58
2022/08/27 00:29:39;;;;;;;10.43;4.33;;;19.80;99.90;;;;;;5017523;28;20477;-58
2022/08/27 00:32:07;;;;;;;9.33;5.53;;;19.80;99.90;;;;;;5017220;28;20465;-58
2022/08/27 00:34:35;;;;;;;9.43;5.37;;;19.80;99.90;;;;;;5017056;28;20539;-59
2022/08/27 00:37:02;;;;;;;10.43;4.40;;;19.70;99.90;;;;;;5016867;28;20537;-59
2022/08/27 00:39:31;;;;;;;10.10;5.67;;;19.70;99.90;;;;;;5016893;28;20959;-59
2022/08/27 00:41:59;;;;;;;13.23;5.37;;;19.70;99.90;;;;;;5016736;28;21060;-59
2022/08/27 00:44:26;;;;;;;10.97;5.27;;;19.70;99.90;;;;;;5016822;28;20513;-59
2022/08/27 00:46:56;;;;;;;9.40;5.23;;;19.70;99.90;;;;;;5017227;28;20558;-59
2022/08/27 00:49:28;;;;;;;12.30;4.73;;;19.70;99.90;;;;;;5017119;28;21036;-59
2022/08/27 00:51:58;;;;;;;13.60;4.70;;;19.60;99.90;;;;;;5016991;28;20548;-58
2022/08/27 00:54:27;;;;;;;10.60;4.40;;;19.70;99.90;;;;;;5016829;28;20559;-58
2022/08/27 00:56:58;;;;;;;11.43;4.37;;;19.70;99.90;;;;;;5017076;28;20470;-58
2022/08/27 00:59:29;;;;;;;10.97;4.30;;;19.70;99.90;;;;;;5017143;28;20488;-58
2022/08/27 01:04:44;;;;;;;10.20;3.93;;;19.70;99.90;;;;;;5016869;28;20401;-58
2022/08/27 01:07:13;;;;;;;7.77;4.57;;;19.70;99.90;;;;;;5016749;28;20537;-58
2022/08/27 01:09:42;;;;;;;10.30;5.40;;;19.60;99.90;;;;;;5016831;28;20478;-58
2022/08/27 01:12:11;;;;;;;14.03;5.63;;;19.70;99.90;;;;;;5016429;28;20655;-58
2022/08/27 01:14:39;;;;;;;7.60;4.60;;;19.60;99.90;;;;;;5017236;28;20569;-58
2022/08/27 01:17:09;;;;;;;8.93;4.57;;;19.60;99.90;;;;;;5016574;28;20468;-58
2022/08/27 01:19:41;;;;;;;14.53;5.00;;;19.60;99.90;;;;;;5016391;28;20549;-59
2022/08/27 01:22:15;;;;;;;13.33;5.57;;;19.60;99.90;;;;;;5016601;28;20493;-59
2022/08/27 01:24:46;;;;;;;12.80;5.43;;;19.60;99.90;;;;;;5016294;28;20516;-58
2022/08/27 01:27:17;;;;;;;10.10;4.77;;;19.50;99.90;;;;;;5016321;28;20418;-58
2022/08/27 01:29:45;;;;;;;9.50;5.70;;;19.50;99.90;;;;;;5016345;28;20431;-59
2022/08/27 01:32:16;;;;;;;10.13;4.87;;;19.50;99.90;;;;;;5015991;28;20565;-58
2022/08/27 01:34:43;;;;;;;10.53;4.60;;;19.50;99.90;;;;;;5016546;28;20569;-58
2022/08/27 01:37:12;;;;;;;10.50;5.30;;;19.50;99.90;;;;;;5017079;28;20548;-58
2022/08/27 01:39:40;;;;;;;7.57;5.00;;;19.50;99.90;;;;;;5016290;28;20544;-58
2022/08/27 01:42:12;;;;;;;8.50;4.50;;;19.50;99.90;;;;;;5016471;28;20512;-58
2022/08/27 01:44:45;;;;;;;13.40;5.43;;;19.50;99.90;;;;;;5016106;28;20426;-58
2022/08/27 01:47:13;;;;;;;12.43;5.50;;;19.50;99.90;;;;;;5015798;28;20961;-57
2022/08/27 01:49:40;;;;;;;10.73;5.40;;;19.50;99.90;;;;;;5015631;28;20485;-58
2022/08/27 01:52:07;;;;;;;11.63;5.30;;;19.50;99.90;;;;;;5015631;28;20993;-59
2022/08/27 01:54:35;;;;;;;11.23;5.33;;;19.40;99.90;;;;;;5015447;28;20446;-58
2022/08/27 01:57:02;;;;;;;16.83;5.77;;;19.40;99.90;;;;;;5015778;28;20884;-58
2022/08/27 01:59:31;;;;;;;11.80;5.87;;;19.40;99.90;;;;;;5015731;28;20529;-58
2022/08/27 02:02:00;;;;;;;8.57;5.83;;;19.40;99.90;;;;;;5015629;28;20557;-59
2022/08/27 02:04:27;;;;;;;7.27;5.33;;;19.40;99.90;;;;;;5015641;28;20616;-59
2022/08/27 02:06:55;;;;;;;10.37;6.10;;;19.40;99.90;;;;;;5015440;28;20941;-59
2022/08/27 02:09:22;;;;;;;12.40;6.40;;;19.40;99.90;;;;;;5015583;28;20532;-59
2022/08/27 02:11:49;;;;;;;8.80;5.93;;;19.30;99.90;;;;;;5015099;28;20625;-59
2022/08/27 02:14:16;;;;;;;13.63;5.53;;;19.30;99.90;;;;;;5015043;28;20469;-58
2022/08/27 02:16:45;;;;;;;11.03;6.23;;;19.30;99.90;;;;;;5015250;28;20642;-59
2022/08/27 02:19:12;;;;;;;16.80;8.00;;;19.30;99.90;;;;;;5015370;28;20536;-58
2022/08/27 02:21:40;;;;;;;10.47;6.70;;;19.30;99.90;;;;;;5014917;28;20837;-59
2022/08/27 02:24:07;;;;;;;7.37;5.50;;;19.20;99.90;;;;;;5015266;28;20525;-59
2022/08/27 02:26:34;;;;;;;11.17;5.40;;;19.30;99.90;;;;;;5014840;28;20439;-59
2022/08/27 02:29:01;;;;;;;10.87;6.07;;;19.30;99.90;;;;;;5015628;28;20549;-59
2022/08/27 02:31:29;;;;;;;9.97;5.10;;;19.30;99.90;;;;;;5014574;28;20568;-59
2022/08/27 02:33:57;;;;;;;15.77;6.50;;;19.30;99.90;;;;;;5014931;28;20529;-58
2022/08/27 02:36:25;;;;;;;10.30;6.50;;;19.20;99.90;;;;;;5014934;28;20561;-58
2022/08/27 02:38:52;;;;;;;11.50;6.13;;;19.20;99.90;;;;;;5014976;28;20888;-59
2022/08/27 02:41:19;;;;;;;12.47;6.30;;;19.20;99.90;;;;;;5014894;28;20552;-59
2022/08/27 02:43:46;;;;;;;8.80;6.67;;;19.30;99.90;;;;;;5015651;28;20845;-59
2022/08/27 02:46:14;;;;;;;10.17;6.30;;;19.20;99.90;;;;;;5014773;28;20801;-58
2022/08/27 02:48:42;;;;;;;9.83;6.00;;;19.20;99.90;;;;;;5013900;28;20492;-59
2022/08/27 02:51:11;;;;;;;12.90;5.70;;;19.20;99.90;;;;;;5014782;28;20525;-58
2022/08/27 02:53:38;;;;;;;8.10;6.17;;;19.20;99.90;;;;;;5014785;28;20524;-59
2022/08/27 02:56:06;;;;;;;12.53;6.40;;;19.20;99.90;;;;;;5014316;28;20569;-59
2022/08/27 02:58:34;;;;;;;8.93;6.17;;;19.20;99.90;;;;;;5014726;28;20450;-58
2022/08/27 03:01:01;;;;;;;12.17;6.67;;;19.20;99.90;;;;;;5014358;28;21004;-58
2022/08/27 03:03:29;;;;;;;9.40;6.50;;;19.20;99.90;;;;;;5014506;28;21024;-59
2022/08/27 03:05:57;;;;;;;14.60;6.10;;;19.20;99.90;;;;;;5015012;28;20438;-59
2022/08/27 03:08:27;;;;;;;7.13;5.90;;;19.20;99.90;;;;;;5015891;28;20450;-59
2022/08/27 03:10:54;;;;;;;6.60;5.00;;;19.20;99.90;;;;;;5015153;28;20524;-59
2022/08/27 03:13:22;;;;;;;8.60;6.57;;;19.20;99.90;;;;;;5014169;28;20453;-59
2022/08/27 03:15:49;;;;;;;7.30;5.30;;;19.10;99.90;;;;;;5014369;28;20564;-59
2022/08/27 03:18:18;;;;;;;11.53;5.43;;;19.10;99.90;;;;;;5014020;28;20446;-59
2022/08/27 03:20:49;;;;;;;10.27;6.40;;;19.10;99.90;;;;;;5014444;28;20882;-58
2022/08/27 03:23:17;;;;;;;11.23;5.03;;;19.10;99.90;;;;;;5014325;28;20476;-58
2022/08/27 03:25:50;;;;;;;7.33;5.10;;;19.10;99.90;;;;;;5014295;28;20548;-58
2022/08/27 03:28:17;;;;;;;9.90;6.00;;;19.00;99.90;;;;;;5014370;28;20508;-58
2022/08/27 03:30:49;;;;;;;13.20;5.30;;;19.00;99.90;;;;;;5013799;28;20446;-58
2022/08/27 03:33:16;;;;;;;10.70;5.43;;;19.10;99.90;;;;;;5013956;28;20430;-58
2022/08/27 03:35:44;;;;;;;10.30;5.23;;;19.00;99.90;;;;;;5014153;28;20525;-59
2022/08/27 03:38:11;;;;;;;9.60;5.10;;;19.00;99.90;;;;;;5014498;28;20870;-58
2022/08/27 03:40:38;;;;;;;13.63;5.70;;;19.00;99.90;;;;;;5013916;28;20456;-59
2022/08/27 03:43:07;;;;;;;8.27;4.80;;;19.00;99.90;;;;;;5013671;28;20672;-58
2022/08/27 03:45:34;;;;;;;10.00;4.73;;;19.10;99.90;;;;;;5013611;28;20437;-58
2022/08/27 03:48:01;;;;;;;12.37;4.97;;;19.10;99.90;;;;;;5013964;28;20453;-59
2022/08/27 03:50:28;;;;;;;15.70;5.53;;;19.00;99.90;;;;;;5013894;28;20446;-58
2022/08/27 03:52:55;;;;;;;7.90;4.63;;;19.00;99.90;;;;;;5013828;28;20823;-58
2022/08/27 03:55:23;;;;;;;15.80;4.90;;;19.00;99.90;;;;;;5014450;28;20482;-59
2022/08/27 03:57:50;;;;;;;5.53;4.30;;;19.00;99.90;;;;;;5013899;28;20445;-59
2022/08/27 04:00:19;;;;;;;12.30;4.63;;;19.00;99.90;;;;;;5013333;28;20452;-58
2022/08/27 04:02:46;;;;;;;6.97;4.63;;;19.00;99.90;;;;;;5013423;28;20466;-58
2022/08/27 04:05:14;;;;;;;7.70;4.33;;;19.00;99.90;;;;;;5013810;28;20443;-58
2022/08/27 04:10:12;;;;;;;8.77;4.50;;;19.00;99.90;;;;;;5111758;27;20544;-60
2022/08/27 04:12:39;;;;;;;4.83;4.30;;;19.00;99.90;;;;;;5114417;28;20500;-60
2022/08/27 04:15:09;;;;;;;17.40;4.87;;;19.00;99.90;;;;;;5111976;28;20445;-59
2022/08/27 04:17:36;;;;;;;18.13;4.90;;;19.00;99.90;;;;;;5114306;28;20445;-59
2022/08/27 04:20:06;;;;;;;8.53;3.97;;;18.90;99.90;;;;;;5119709;28;20442;-59
2022/08/27 04:22:33;;;;;;;6.77;3.97;;;18.90;99.90;;;;;;5113919;28;20502;-59
2022/08/27 04:25:01;;;;;;;9.80;5.10;;;18.90;99.90;;;;;;5112472;28;20441;-60
2022/08/27 04:27:30;;;;;;;9.60;4.37;;;18.90;99.90;;;;;;5112407;28;20485;-59
2022/08/27 04:30:00;;;;;;;4.73;3.87;;;18.90;99.90;;;;;;5111335;28;20973;-59
2022/08/27 04:32:29;;;;;;;10.50;3.70;;;18.90;99.90;;;;;;5110787;28;20557;-59
2022/08/27 04:34:57;;;;;;;5.90;4.00;;;18.90;99.90;;;;;;5110931;28;20852;-60
2022/08/27 04:37:26;;;;;;;7.00;4.10;;;18.90;99.90;;;;;;5110894;28;20441;-59
2022/08/27 04:39:53;;;;;;;8.30;4.57;;;18.90;99.90;;;;;;5110574;28;20941;-60
2022/08/27 04:42:20;;;;;;;10.00;3.70;;;18.90;99.90;;;;;;5110536;28;20461;-60
2022/08/27 04:44:49;;;;;;;3.50;3.20;;;18.90;99.90;;;;;;5111351;28;20438;-60
2022/08/27 04:47:16;;;;;;;9.80;4.80;;;18.90;99.90;;;;;;5111151;28;20521;-59
2022/08/27 04:49:43;;;;;;;6.77;4.13;;;18.90;99.90;;;;;;5110685;28;20477;-59
2022/08/27 04:52:11;;;;;;;9.10;4.37;;;18.90;99.90;;;;;;5110134;28;20462;-59
2022/08/27 04:54:38;;;;;;;6.30;3.50;;;18.90;99.90;;;;;;5110537;28;20507;-59
2022/08/27 04:57:07;;;;;;;7.67;3.63;;;18.90;99.90;;;;;;5110062;28;20552;-59
2022/08/27 04:59:36;;;;;;;8.83;4.30;;;18.90;99.90;;;;;;5110008;28;20927;-58
2022/08/27 05:02:08;;;;;;;7.40;3.77;;;18.90;99.90;;;;;;5110290;28;20820;-59
2022/08/27 05:04:38;;;;;;;8.03;4.00;;;18.90;99.90;;;;;;5111284;28;20496;-60
2022/08/27 05:07:06;;;;;;;8.30;4.10;;;18.90;99.90;;;;;;5110195;28;20426;-60
2022/08/27 05:09:34;;;;;;;6.20;4.20;;;18.80;99.90;;;;;;5110198;28;20919;-58
2022/08/27 05:12:01;;;;;;;9.10;4.80;;;18.80;99.90;;;;;;5110383;28;20477;-60
2022/08/27 05:14:31;;;;;;;8.53;4.67;;;18.80;99.90;;;;;;5110301;28;20869;-59
2022/08/27 05:16:59;;;;;;;13.30;4.77;;;18.80;99.90;;;;;;5110310;28;20449;-59
2022/08/27 05:19:27;;;;;;;12.40;5.93;;;18.80;99.90;;;;;;5108216;28;20438;-60
2022/08/27 05:21:57;;;;;;;11.37;5.47;;;18.80;99.90;;;;;;5096257;28;20540;-59
2022/08/27 05:24:24;;;;;;;10.10;4.40;;;18.80;99.90;;;;;;5096086;28;20446;-60
2022/08/27 05:26:51;;;;;;;7.50;4.03;;;18.80;99.90;;;;;;5096085;28;20449;-60
2022/08/27 05:29:19;;;;;;;7.73;4.37;;;18.80;99.90;;;;;;5095950;28;20841;-59
2022/08/27 05:31:47;;;;;;;8.83;5.23;;;18.80;99.90;;;;;;5095641;28;20472;-59
2022/08/27 05:34:15;;;;;;;8.60;4.30;;;18.80;99.90;;;;;;5095780;28;20450;-59
2022/08/27 05:36:47;;;;;;;7.87;4.87;;;18.80;99.90;;;;;;5095885;28;20442;-60
2022/08/27 05:39:15;;;;;;;12.93;5.07;;;18.80;99.90;;;;;;5113905;28;20415;-58
2022/08/27 05:41:44;;;;;;;11.80;5.00;;;18.80;99.90;;;;;;5099204;28;20469;-58
2022/08/27 05:44:14;;;;;;;12.70;5.47;;;18.80;99.90;;;;;;5095547;28;20534;-59
2022/08/27 05:46:41;;;;;;;7.00;4.80;;;18.80;99.90;;;;;;5095647;28;20993;-59
2022/08/27 05:49:09;;;;;;;13.73;4.80;;;18.80;99.90;;;;;;5096722;28;20500;-60
2022/08/27 05:51:37;;;;;;;10.13;4.60;;;18.80;99.90;;;;;;5097456;28;20470;-59
2022/08/27 05:54:09;;;;;;;10.57;4.67;;;18.80;99.90;;;;;;5097780;28;20451;-60
2022/08/27 05:56:37;;;;;;;8.30;4.67;;;18.80;99.90;;;;;;5096798;28;20434;-59
2022/08/27 06:01:52;;;;;;;8.53;5.50;;;18.80;99.90;;;;;;5096580;28;20437;-60
2022/08/27 06:04:20;;;;;;;10.70;4.70;;;18.90;99.90;;;;;;5096184;28;20929;-60
2022/08/27 06:06:49;;;;;;;8.87;4.97;;;18.90;99.90;;;;;;5096214;28;20437;-59
2022/08/27 06:09:19;;;;;;;8.33;3.87;;;18.90;99.90;;;;;;5096823;28;20482;-59
2022/08/27 06:11:47;;;;;;;13.43;4.37;;;18.90;99.90;;;;;;5096126;28;20552;-58
2022/08/27 06:14:15;;;;;;;5.33;4.00;;;18.90;99.90;;;;;;5096562;28;20967;-60
2022/08/27 06:16:42;;;;;;;7.63;4.80;;;18.90;99.90;;;;;;5096220;28;20515;-59
2022/08/27 06:19:11;;;;;;;8.10;4.40;;;18.90;99.90;;;;;;5096144;28;20446;-59
2022/08/27 06:21:39;;;;;;;7.60;4.07;;;19.00;99.90;;;;;;5095757;28;20477;-59
2022/08/27 06:24:07;;;;;;;8.80;4.00;;;19.00;99.90;;;;;;5095732;28;20447;-60
2022/08/27 06:26:36;;;;;;;5.90;3.50;;;19.10;99.90;;;;;;5095490;28;20497;-60
2022/08/27 06:29:04;;;;;;;5.87;3.10;;;19.10;99.90;;;;;;5095051;28;20574;-60
2022/08/27 06:31:33;;;;;;;10.50;3.23;;;19.10;99.90;;;;;;5089060;28;20560;-59
2022/08/27 06:34:03;;;;;;;6.33;3.40;;;19.10;99.90;;;;;;5095109;28;20446;-59
2022/08/27 06:36:31;;;;;;;8.07;3.63;;;19.10;99.90;;;;;;5090898;28;20439;-59
2022/08/27 06:38:58;;;;;;;9.10;3.93;;;19.20;99.90;;;;;;5095029;28;20481;-59
2022/08/27 06:41:27;;;;;;;8.87;3.40;;;19.10;99.90;;;;;;5094620;28;20883;-59
2022/08/27 06:43:57;;;;;;;6.00;3.80;;;19.10;99.90;;;;;;5089859;28;20454;-60
2022/08/27 06:46:26;;;;;;;9.53;3.53;;;19.10;99.90;;;;;;5082602;28;20446;-58
2022/08/27 06:48:55;;;;;;;5.83;4.10;;;19.10;99.90;;;;;;5074406;28;20475;-59
2022/08/27 06:51:25;;;;;;;6.57;3.50;;;19.10;99.90;;;;;;5086051;28;20466;-58
2022/08/27 06:53:53;;;;;;;8.43;3.77;;;19.20;99.90;;;;;;5074298;28;20447;-58
2022/08/27 06:56:21;;;;;;;7.67;3.77;;;19.20;99.90;;;;;;5081263;28;20449;-59
2022/08/27 06:58:52;;;;;;;8.40;4.10;;;19.30;99.90;;;;;;5094085;28;20929;-60
2022/08/27 07:01:23;;;;;;;11.97;4.50;;;19.30;99.90;;;;;;5078305;28;20501;-60
2022/08/27 07:03:50;;;;;;;13.80;5.07;;;19.30;99.90;;;;;;5085441;28;20544;-60
2022/08/27 07:06:18;;;;;;;7.40;4.30;;;19.40;99.90;;;;;;5076969;28;20806;-59
2022/08/27 07:08:45;;;;;;;6.40;3.70;;;19.30;99.90;;;;;;5073767;28;20463;-59
2022/08/27 07:11:14;;;;;;;12.20;4.33;;;19.30;99.90;;;;;;5073881;28;20491;-60
2022/08/27 07:13:42;;;;;;;7.63;3.50;;;19.30;99.90;;;;;;5073924;28;20453;-59
2022/08/27 07:16:12;;;;;;;5.90;4.10;;;19.40;99.90;;;;;;5074928;28;20443;-58
2022/08/27 07:18:41;;;;;;;9.30;4.13;;;19.40;99.90;;;;;;5085883;28;20438;-59
2022/08/27 07:21:09;;;;;;;9.83;4.47;;;19.40;99.90;;;;;;5094478;28;20525;-59
2022/08/27 07:23:38;;;;;;;6.50;3.33;;;19.40;99.90;;;;;;5093123;28;20509;-59
2022/08/27 07:26:08;;;;;;;9.10;3.90;;;19.40;99.90;;;;;;5081188;28;20808;-59
2022/08/27 07:28:35;;;;;;;14.83;4.60;;;19.50;99.90;;;;;;5074806;28;20451;-59
2022/08/27 07:31:02;;;;;;;7.33;3.50;;;19.60;99.90;;;;;;5073365;28;20489;-59
2022/08/27 07:33:30;;;;;;;8.23;3.90;;;19.60;99.90;;;;;;5073588;28;20446;-59
2022/08/27 07:35:58;;;;;;;7.57;3.67;;;19.80;99.90;;;;;;5073520;28;20494;-60
2022/08/27 07:38:26;;;;;;;5.53;3.33;;;19.80;99.90;;;;;;5092926;28;20770;-59
2022/08/27 07:40:53;;;;;;;6.37;2.83;;;19.90;99.90;;;;;;5093503;28;20472;-60
2022/08/27 07:46:05;;;;;;;5.17;3.30;;;20.00;99.90;;;;;;5093609;28;20402;-59
2022/08/27 07:48:33;;;;;;;7.57;3.60;;;20.00;99.90;;;;;;5093312;28;20438;-58
2022/08/27 07:51:04;;;;;;;8.57;3.23;;;20.10;99.90;;;;;;5093290;28;20480;-60
2022/08/27 07:53:31;;;;;;;9.30;3.13;;;20.10;99.90;;;;;;5094066;28;20559;-59
2022/08/27 07:56:03;;;;;;;7.60;3.43;;;20.20;99.90;;;;;;5086234;28;20533;-59
2022/08/27 07:58:30;;;;;;;7.33;2.53;;;20.30;99.90;;;;;;5073614;28;20761;-60
2022/08/27 08:00:58;;;;;;;7.63;3.30;;;20.30;99.90;;;;;;5073463;28;20538;-59
2022/08/27 08:03:25;;;;;;;5.40;2.40;;;20.30;99.90;;;;;;5079072;28;20446;-59
2022/08/27 08:05:53;;;;;;;4.10;2.63;;;20.30;99.90;;;;;;5093457;28;20446;-59
2022/08/27 08:08:23;;;;;;;6.50;3.40;;;20.30;99.90;;;;;;5093374;28;20454;-61
2022/08/27 08:10:50;;;;;;;7.23;3.30;;;20.30;99.90;;;;;;5093442;28;20512;-59
2022/08/27 08:13:19;;;;;;;10.87;2.80;;;20.20;99.90;;;;;;5094297;28;20536;-60
2022/08/27 08:15:48;;;;;;;5.97;3.00;;;20.10;99.90;;;;;;5091404;28;20512;-61
2022/08/27 08:18:15;;;;;;;5.43;2.60;;;20.10;99.90;;;;;;5092962;28;20449;-59
2022/08/27 08:20:42;;;;;;;9.77;3.00;;;20.10;99.90;;;;;;5073584;28;20439;-60
2022/08/27 08:23:10;;;;;;;6.17;2.30;;;20.20;99.90;;;;;;5073357;28;20459;-60
2022/08/27 08:25:38;;;;;;;5.20;2.53;;;20.20;99.90;;;;;;5073697;28;20454;-59
2022/08/27 08:28:05;;;;;;;10.50;3.13;;;20.30;99.90;;;;;;5084202;28;20471;-59
2022/08/27 08:30:33;;;;;;;6.80;2.70;;;20.30;99.90;;;;;;5075982;28;20475;-59
2022/08/27 08:33:00;;;;;;;5.77;2.57;;;20.40;99.90;;;;;;5081532;28;20824;-61
2022/08/27 08:35:27;;;;;;;5.87;2.83;;;20.40;99.90;;;;;;5072820;28;20818;-60
2022/08/27 08:37:55;;;;;;;6.60;3.23;;;20.40;99.90;;;;;;5090873;28;20454;-60
2022/08/27 08:40:29;;;;;;;7.20;2.80;;;20.20;99.90;;;;;;5093726;28;20530;-60
2022/08/27 08:42:57;;;;;;;4.20;2.80;;;20.10;99.90;;;;;;5093223;28;20972;-60
2022/08/27 08:45:31;;;;;;;5.83;2.67;;;20.00;99.90;;;;;;5092988;28;20529;-61
2022/08/27 08:48:04;;;;;;;7.80;2.60;;;20.00;99.90;;;;;;5087925;28;20545;-62
2022/08/27 08:50:39;;;;;;;7.17;3.07;;;19.90;99.90;;;;;;5085381;28;20550;-59
2022/08/27 08:53:13;;;;;;;6.00;2.47;;;19.80;99.90;;;;;;5088253;28;20987;-61
2022/08/27 08:55:47;;;;;;;7.10;3.10;;;19.80;99.90;;;;;;5094644;28;20890;-60
2022/08/27 08:58:24;;;;;;;8.77;3.93;;;19.80;99.90;;;;;;5081351;28;20472;-60
2022/08/27 09:00:54;;;;;;;14.43;3.63;;;19.80;99.90;;;;;;5082751;28;20517;-60
2022/08/27 09:03:22;;;;;;;4.60;3.07;;;19.80;99.90;;;;;;5096372;28;20433;-60
2022/08/27 09:05:55;;;;;;;8.90;3.10;;;19.80;99.90;;;;;;5096175;28;20539;-61
2022/08/27 09:08:29;;;;;;;5.37;3.17;;;19.80;99.90;;;;;;5096305;28;20450;-61
2022/08/27 09:11:03;;;;;;;6.23;3.03;;;19.70;99.90;;;;;;5095892;28;20473;-60
2022/08/27 09:13:38;;;;;;;4.83;3.13;;;19.70;99.90;;;;;;5096885;28;20432;-62
2022/08/27 09:16:06;;;;;;;6.77;2.77;;;19.70;99.90;;;;;;5096147;28;20808;-61
2022/08/27 09:18:37;;;;;;;5.63;3.20;;;19.70;99.90;;;;;;5096272;28;20446;-62
2022/08/27 09:21:11;;;;;;;7.93;3.13;;;19.80;99.90;;;;;;5078577;28;20534;-60
2022/08/27 09:23:46;;;;;;;5.23;3.43;;;19.80;99.90;;;;;;5080328;28;20431;-60
2022/08/27 09:26:22;;;;;;;8.57;3.13;;;19.80;99.90;;;;;;5096752;28;20792;-59
2022/08/27 09:31:43;;;;;;;6.77;2.93;;;20.00;99.90;;;;;;5099643;28;20615;-60
2022/08/27 09:34:10;;;;;;;6.70;3.57;;;20.00;99.90;;;;;;5100032;28;20817;-60
2022/08/27 09:36:52;;;;;;;5.60;2.90;;;20.00;99.90;;;;;;5100028;28;20442;-61
2022/08/27 09:39:19;;;;;;;10.03;3.13;;;20.10;99.90;;;;;;5096999;28;20446;-61
2022/08/27 09:41:48;;;;;;;7.53;3.43;;;20.10;99.90;;;;;;5092057;28;20494;-59
2022/08/27 09:44:21;;;;;;;7.73;3.03;;;20.20;99.90;;;;;;5076257;28;20444;-60
2022/08/27 09:46:56;;;;;;;7.80;3.83;;;20.30;99.90;;;;;;5075774;28;20432;-60
2022/08/27 09:49:24;;;;;;;3.23;2.90;;;20.30;99.90;;;;;;5075676;28;20435;-60
2022/08/27 09:51:52;;;;;;;4.10;2.67;;;20.40;99.90;;;;;;5075531;28;20561;-59
2022/08/27 09:54:42;;;;;;;6.33;3.17;;;20.40;99.90;;;;;;5075795;28;20438;-59
2022/08/27 09:57:11;;;;;;;7.27;3.10;;;20.50;99.70;;;;;;5070879;28;20840;-61
2022/08/27 09:59:50;;;;;;;8.23;3.50;;;20.70;99.50;;;;;;5075118;28;20436;-60
2022/08/27 10:02:20;;;;;;;10.40;3.47;;;20.90;99.10;;;;;;5075139;28;20878;-60
2022/08/27 10:04:49;;;;;;;6.50;3.60;;;21.10;98.10;;;;;;5075097;28;20463;-61
2022/08/27 10:07:33;;;;;;;5.70;2.80;;;21.20;97.60;;;;;;5075064;28;20522;-58
2022/08/27 10:10:09;;;;;;;6.00;2.90;;;21.20;97.00;;;;;;5085283;28;20482;-61
2022/08/27 10:12:46;;;;;;;8.00;3.47;;;21.20;96.60;;;;;;5095573;28;21032;-59
2022/08/27 10:15:16;;;;;;;8.67;3.43;;;21.40;96.10;;;;;;5075631;28;20445;-61
2022/08/27 10:17:53;;;;;;;5.77;3.03;;;21.50;95.90;;;;;;5074728;28;20488;-61
2022/08/27 10:20:28;;;;;;;4.80;2.90;;;21.60;95.20;;;;;;5074572;28;20461;-60
2022/08/27 10:23:05;;;;;;;6.83;2.70;;;21.80;94.50;;;;;;5082864;28;20529;-59
2022/08/27 10:25:42;;;;;;;8.83;2.90;;;21.80;94.10;;;;;;5077911;28;20760;-60
2022/08/27 10:28:23;;;;;;;4.97;2.63;;;21.80;93.50;;;;;;5079930;28;20442;-60
2022/08/27 10:31:10;;;;;;;9.83;2.83;;;21.80;93.70;;;;;;5095542;28;20473;-61
2022/08/27 10:33:45;;;;;;;6.07;2.93;;;21.80;93.50;;;;;;5095419;28;20502;-64
2022/08/27 10:36:24;;;;;;;7.30;3.40;;;21.80;93.30;;;;;;5094958;28;20423;-60
2022/08/27 10:39:01;;;;;;;11.40;3.50;;;21.80;93.30;;;;;;5095233;28;20434;-59
2022/08/27 10:41:34;;;;;;;4.63;2.70;;;21.90;93.00;;;;;;5095298;28;20548;-59
2022/08/27 10:44:25;;;;;;;9.27;2.80;;;22.00;92.90;;;;;;5092871;28;20435;-58
2022/08/27 10:47:13;;;;;;;7.83;2.70;;;22.20;92.50;;;;;;5079934;28;20464;-58
2022/08/27 10:49:50;;;;;;;4.33;2.30;;;22.20;91.60;;;;;;5077770;28;20552;-59
2022/08/27 10:52:21;;;;;;;4.40;2.27;;;22.20;91.30;;;;;;5074014;28;20473;-59
2022/08/27 10:54:54;;;;;;;4.87;2.37;;;22.30;90.80;;;;;;5074471;28;20745;-60
2022/08/27 10:57:31;;;;;;;6.10;2.40;;;22.30;90.30;;;;;;5081208;28;20501;-60
2022/08/27 11:00:05;;;;;;;3.70;2.17;;;22.30;90.00;;;;;;5081019;28;20525;-59
2022/08/27 11:02:39;;;;;;;4.57;2.60;;;22.40;89.00;;;;;;5078880;28;20486;-61
2022/08/27 11:05:15;;;;;;;7.00;2.10;;;22.60;87.90;;;;;;5077027;28;20518;-59
2022/08/27 11:07:46;;;;;;;3.70;2.03;;;22.80;86.40;;;;;;5077501;28;20516;-58
2022/08/27 11:10:19;;;;;;;3.77;2.30;;;23.00;85.10;;;;;;5077365;28;20463;-59
2022/08/27 11:12:51;;;;;;;5.53;2.27;;;23.20;82.70;;;;;;5076300;28;20463;-60
2022/08/27 11:15:22;;;;;;;4.50;2.50;;;23.30;81.90;;;;;;5075741;28;20525;-61
2022/08/27 11:17:57;;;;;;;5.53;2.30;;;23.40;80.70;;;;;;5074314;28;20427;-59
2022/08/27 11:20:29;;;;;;;10.63;2.30;;;23.50;80.00;;;;;;5075191;28;20909;-60
2022/08/27 11:23:03;;;;;;;6.00;2.47;;;23.60;78.50;;;;;;5075652;28;20477;-60
2022/08/27 11:25:42;;;;;;;4.40;2.90;;;23.60;78.00;;;;;;5076063;28;20463;-67
2022/08/27 11:28:11;;;;;;;2.80;2.00;;;23.70;77.00;;;;;;5082135;28;20872;-63
2022/08/27 11:30:52;;;;;;;5.40;2.00;;;23.70;76.50;;;;;;5077801;28;20902;-61
2022/08/27 11:33:28;;;;;;;4.70;2.23;;;23.70;75.40;;;;;;5073690;28;20430;-60
2022/08/27 11:36:18;;;;;;;15.13;2.90;;;23.70;74.90;;;;;;5073933;28;20438;-60
2022/08/27 11:38:54;;;;;;;3.50;2.50;;;23.80;74.70;;;;;;5073014;28;20435;-61
2022/08/27 11:41:47;;;;;;;5.93;2.57;;;23.90;74.30;;;;;;5073284;28;20544;-60
2022/08/27 11:44:15;;;;;;;5.60;2.43;;;24.10;72.60;;;;;;5073065;28;20546;-60
2022/08/27 11:46:45;;;;;;;4.00;2.40;;;24.10;71.30;;;;;;5074689;28;20448;-62
2022/08/27 11:49:25;;;;;;;4.57;2.13;;;24.00;71.10;;;;;;5074358;28;21027;-62
2022/08/27 11:51:59;;;;;;;3.73;2.27;;;24.00;71.20;;;;;;5074426;28;20514;-59
2022/08/27 11:54:30;;;;;;;4.80;2.50;;;23.90;71.10;;;;;;5074149;28;20515;-59
2022/08/27 11:56:57;;;;;;;6.80;2.63;;;23.90;71.00;;;;;;5073429;28;20436;-59
2022/08/27 11:59:33;;;;;;;5.13;2.50;;;23.90;70.80;;;;;;5073176;28;20533;-60
2022/08/27 12:02:19;;;;;;;6.13;2.37;;;23.80;70.90;;;;;;5072951;28;20872;-60
2022/08/27 12:04:48;;;;;;;3.43;2.70;;;23.80;70.80;;;;;;5073200;28;20509;-59
2022/08/27 12:07:34;;;;;;;4.03;3.03;;;23.70;70.70;;;;;;5073205;28;20792;-59
2022/08/27 12:10:27;;;;;;;16.13;2.80;;;23.60;71.30;;;;;;5073482;28;20470;-60
2022/08/27 12:13:04;;;;;;;3.80;2.10;;;23.60;71.10;;;;;;5075481;28;20466;-58
2022/08/27 12:15:46;;;;;;;6.20;2.60;;;23.50;71.10;;;;;;5084321;28;20511;-58
2022/08/27 12:18:40;;;;;;;6.83;2.80;;;23.50;71.40;;;;;;5081659;28;20514;-61
2022/08/27 12:21:20;;;;;;;5.67;2.90;;;23.60;71.40;;;;;;5079825;28;20500;-59
2022/08/27 12:24:10;;;;;;;4.93;3.03;;;23.60;71.00;;;;;;5079504;28;20526;-60
2022/08/27 12:26:38;;;;;;;5.00;3.10;;;23.60;70.80;;;;;;5074043;28;20454;-60
2022/08/27 12:29:24;;;;;;;5.10;3.47;;;23.60;71.10;;;;;;5073141;28;20890;-60
2022/08/27 12:31:55;;;;;;;9.17;3.00;;;23.60;71.10;;;;;;5076868;28;20490;-60
2022/08/27 12:34:25;;;;;;;6.70;2.60;;;23.70;71.10;;;;;;5078473;28;20941;-61
2022/08/27 12:36:55;;;;;;;3.13;2.37;;;23.70;70.80;;;;;;5078178;28;20435;-59
2022/08/27 12:39:29;;;;;;;6.10;2.53;;;23.60;70.80;;;;;;5076367;28;20899;-59
2022/08/27 12:41:57;;;;;;;7.43;3.40;;;23.50;71.10;;;;;;5077037;28;20532;-61
2022/08/27 12:44:26;;;;;;;7.13;2.30;;;23.50;71.30;;;;;;5076706;28;20439;-60
2022/08/27 12:46:59;;;;;;;7.93;2.33;;;23.50;71.30;;;;;;5076640;28;20835;-59
2022/08/27 12:49:30;;;;;;;8.33;2.50;;;23.40;71.20;;;;;;5077345;28;20424;-60
2022/08/27 12:52:03;;;;;;;5.97;3.17;;;23.30;71.90;;;;;;5076806;28;20561;-59
2022/08/27 12:54:39;;;;;;;5.33;2.70;;;23.20;72.00;;;;;;5076528;28;20428;-60
2022/08/27 12:57:13;;;;;;;3.07;2.30;;;23.20;71.90;;;;;;5076079;28;20433;-60
2022/08/27 12:59:55;;;;;;;7.67;2.80;;;23.20;72.00;;;;;;5076535;28;20434;-60
2022/08/27 13:02:39;;;;;;;3.47;2.33;;;23.20;72.30;;;;;;5076444;28;20460;-61
2022/08/27 13:05:07;;;;;;;6.73;3.10;;;23.10;72.20;;;;;;5075853;28;20423;-60
2022/08/27 13:07:41;;;;;;;8.53;2.70;;;23.10;72.30;;;;;;5076464;28;20509;-59
2022/08/27 13:10:12;;;;;;;5.83;2.63;;;23.10;72.50;;;;;;5076912;28;20502;-60
2022/08/27 13:12:39;;;;;;;6.47;2.07;;;23.00;72.60;;;;;;5076536;28;20487;-60